Time;durP1;ratioP1;P1;durP2;ratioP2;P2;SDS_P1;SDS_P2;PMS_P1;PMS_P2;Temp;Humidity;BMP_temperature;BMP_pressure;BME280_temperature;BME280_humidity;BME280_pressure;Samples;Min_cycle;Max_cycle;Signal;HPM_P1;HPM_P2
2023/04/22 00:02:07;;;;;;;9.82;5.03;;;;;;;;;;5062867;28;20388;-76
2023/04/22 00:04:32;;;;;;;10.68;5.15;;;;;;;;;;5064672;28;20396;-76
2023/04/22 00:06:58;;;;;;;10.98;5.32;;;;;;;;;;5073469;28;20040;-77
2023/04/22 00:09:36;;;;;;;14.02;4.88;;;;;;;;;;5057811;28;20056;-77
2023/04/22 00:12:02;;;;;;;9.80;4.53;;;;;;;;;;5054138;28;20115;-76
2023/04/22 00:14:27;;;;;;;11.05;5.00;;;;;;;;;;5054787;28;20434;-77
2023/04/22 00:17:05;;;;;;;9.48;5.13;;;;;;;;;;5059185;28;20043;-77
2023/04/22 00:19:32;;;;;;;9.55;4.80;;;;;;;;;;5064641;28;20039;-77
2023/04/22 00:21:57;;;;;;;11.82;5.13;;;;;;;;;;5070512;28;20028;-77
2023/04/22 00:24:36;;;;;;;13.98;5.13;;;;;;;;;;5062428;28;20094;-76
2023/04/22 00:27:02;;;;;;;10.88;4.97;;;;;;;;;;5070960;28;20468;-76
2023/04/22 00:29:27;;;;;;;9.27;4.97;;;;;;;;;;5061377;28;20103;-77
2023/04/22 00:32:05;;;;;;;8.35;4.53;;;;;;;;;;5070141;28;20051;-77
2023/04/22 00:34:31;;;;;;;11.70;4.47;;;;;;;;;;5064724;28;20034;-76
2023/04/22 00:36:56;;;;;;;10.65;5.28;;;;;;;;;;5057836;28;20055;-77
2023/04/22 00:39:37;;;;;;;8.73;4.35;;;;;;;;;;5066974;28;20071;-76
2023/04/22 00:42:04;;;;;;;11.15;5.18;;;;;;;;;;5059425;28;20039;-77
2023/04/22 00:44:42;;;;;;;12.63;5.55;;;;;;;;;;5071050;28;20041;-77
2023/04/22 00:47:08;;;;;;;9.13;5.07;;;;;;;;;;5062428;28;20045;-77
2023/04/22 00:49:34;;;;;;;14.35;4.78;;;;;;;;;;5065606;28;20085;-77
2023/04/22 00:52:12;;;;;;;11.32;5.82;;;;;;;;;;5061325;28;20372;-77
2023/04/22 00:54:38;;;;;;;9.55;4.88;;;;;;;;;;5058569;28;20052;-76
2023/04/22 00:57:04;;;;;;;13.23;5.80;;;;;;;;;;5056439;28;20483;-77
2023/04/22 00:59:42;;;;;;;11.93;5.50;;;;;;;;;;5056538;28;20040;-77
2023/04/22 01:02:08;;;;;;;12.32;5.22;;;;;;;;;;5059402;28;20400;-77
2023/04/22 01:04:33;;;;;;;10.07;5.00;;;;;;;;;;5054234;28;20034;-76
2023/04/22 01:07:12;;;;;;;9.10;4.50;;;;;;;;;;5060663;28;20036;-77
2023/04/22 01:09:38;;;;;;;12.70;5.72;;;;;;;;;;5056375;28;20122;-77
2023/04/22 01:12:04;;;;;;;12.50;4.78;;;;;;;;;;5058879;28;20080;-77
2023/04/22 01:14:43;;;;;;;10.63;5.20;;;;;;;;;;5059124;28;20095;-77
2023/04/22 01:17:10;;;;;;;12.90;5.03;;;;;;;;;;5057124;28;20504;-77
2023/04/22 01:19:36;;;;;;;11.45;5.15;;;;;;;;;;5075123;28;20032;-77
2023/04/22 01:22:16;;;;;;;9.02;4.90;;;;;;;;;;5054378;28;20033;-77
2023/04/22 01:24:42;;;;;;;12.95;5.38;;;;;;;;;;5057734;28;20090;-76
2023/04/22 01:27:15;;;;;;;12.65;4.90;;;;;;;;;;5053108;28;20029;-77
2023/04/22 01:29:46;;;;;;;11.75;5.20;;;;;;;;;;5062768;28;20036;-77
2023/04/22 01:32:12;;;;;;;18.00;4.43;;;;;;;;;;5066651;28;20063;-77
2023/04/22 01:34:44;;;;;;;9.13;4.40;;;;;;;;;;5068897;28;20037;-77
2023/04/22 01:37:15;;;;;;;9.38;4.82;;;;;;;;;;5054877;28;20040;-77
2023/04/22 01:39:41;;;;;;;9.18;4.80;;;;;;;;;;5055977;28;20492;-77
2023/04/22 01:42:14;;;;;;;10.35;4.50;;;;;;;;;;5078123;28;20021;-77
2023/04/22 01:44:45;;;;;;;14.52;5.25;;;;;;;;;;5056614;28;20066;-77
2023/04/22 01:47:12;;;;;;;9.18;4.93;;;;;;;;;;5055235;28;20124;-76
2023/04/22 01:49:44;;;;;;;9.88;4.25;;;;;;;;;;5059602;28;20020;-77
2023/04/22 01:52:15;;;;;;;8.10;4.15;;;;;;;;;;5075503;28;20480;-77
2023/04/22 01:54:41;;;;;;;8.40;4.22;;;;;;;;;;5055876;28;20162;-77
2023/04/22 01:57:15;;;;;;;9.98;4.55;;;;;;;;;;5057896;28;20193;-76
2023/04/22 01:59:46;;;;;;;;;;;;;;;;;;5053885;28;20045;-76
2023/04/22 02:02:12;;;;;;;8.73;3.75;;;;;;;;;;5062126;28;20062;-76
2023/04/22 02:04:44;;;;;;;9.05;3.80;;;;;;;;;;5066080;28;20119;-77
2023/04/22 02:07:15;;;;;;;15.73;5.07;;;;;;;;;;5053396;28;20499;-77
2023/04/22 02:09:41;;;;;;;8.70;4.43;;;;;;;;;;5056263;28;20175;-77
2023/04/22 02:12:12;;;;;;;9.93;4.47;;;;;;;;;;5068994;28;20068;-76
2023/04/22 02:14:44;;;;;;;5.95;3.42;;;;;;;;;;5063813;28;20044;-77
2023/04/22 02:17:10;;;;;;;10.65;4.65;;;;;;;;;;5073603;28;20129;-76
2023/04/22 02:19:42;;;;;;;10.25;4.28;;;;;;;;;;5068479;28;20060;-76
2023/04/22 02:22:13;;;;;;;8.82;4.70;;;;;;;;;;5092072;28;20050;-77
2023/04/22 02:24:39;;;;;;;8.35;4.18;;;;;;;;;;5072198;28;20114;-77
2023/04/22 02:27:10;;;;;;;8.50;5.00;;;;;;;;;;5068262;28;20059;-77
2023/04/22 02:29:42;;;;;;;10.77;4.93;;;;;;;;;;5065563;28;20441;-76
2023/04/22 02:32:08;;;;;;;9.27;4.30;;;;;;;;;;5066250;28;20488;-76
2023/04/22 02:34:40;;;;;;;11.60;4.70;;;;;;;;;;5068165;28;20076;-77
2023/04/22 02:37:12;;;;;;;6.85;3.53;;;;;;;;;;5059327;28;20040;-77
2023/04/22 02:39:38;;;;;;;11.30;4.97;;;;;;;;;;5060403;28;20094;-77
2023/04/22 02:42:09;;;;;;;10.68;5.13;;;;;;;;;;5083128;28;20041;-77
2023/04/22 02:44:41;;;;;;;8.57;4.63;;;;;;;;;;5059336;28;20353;-76
2023/04/22 02:47:07;;;;;;;7.13;4.35;;;;;;;;;;5063893;28;20574;-77
2023/04/22 02:49:38;;;;;;;14.25;4.80;;;;;;;;;;5059340;28;20108;-77
2023/04/22 02:52:10;;;;;;;10.45;4.60;;;;;;;;;;5062934;28;20438;-77
2023/04/22 02:54:36;;;;;;;10.27;4.13;;;;;;;;;;5074043;28;20094;-77
2023/04/22 02:57:08;;;;;;;8.15;4.10;;;;;;;;;;5065470;28;20372;-76
2023/04/22 02:59:40;;;;;;;7.32;4.55;;;;;;;;;;5061425;28;20048;-77
2023/04/22 03:02:06;;;;;;;11.73;5.82;;;;;;;;;;5056939;28;20047;-76
2023/04/22 03:04:37;;;;;;;12.52;5.25;;;;;;;;;;5069099;28;20476;-76
2023/04/22 03:07:09;;;;;;;10.18;5.43;;;;;;;;;;5065174;28;20123;-76
2023/04/22 03:09:35;;;;;;;11.20;5.05;;;;;;;;;;5065177;28;20125;-77
2023/04/22 03:12:08;;;;;;;12.50;4.60;;;;;;;;;;5066433;28;20074;-76
2023/04/22 03:14:39;;;;;;;12.95;5.20;;;;;;;;;;5068455;28;20480;-77
2023/04/22 03:17:05;;;;;;;11.65;5.32;;;;;;;;;;5075326;28;20453;-76
2023/04/22 03:19:37;;;;;;;13.50;5.18;;;;;;;;;;5072787;28;20024;-76
2023/04/22 03:22:08;;;;;;;12.15;5.22;;;;;;;;;;5062714;28;20044;-77
2023/04/22 03:24:34;;;;;;;10.57;5.63;;;;;;;;;;5058463;28;20432;-77
2023/04/22 03:27:06;;;;;;;21.13;7.43;;;;;;;;;;5059915;28;20036;-76
2023/04/22 03:29:37;;;;;;;22.00;6.60;;;;;;;;;;5055632;28;20044;-76
2023/04/22 03:32:03;;;;;;;19.05;6.75;;;;;;;;;;5057936;28;20099;-77
2023/04/22 03:34:35;;;;;;;24.13;7.15;;;;;;;;;;5066101;28;20037;-77
2023/04/22 03:37:06;;;;;;;21.17;5.90;;;;;;;;;;5060361;28;20112;-77
2023/04/22 03:39:32;;;;;;;25.30;6.72;;;;;;;;;;5054569;28;20098;-77
2023/04/22 03:42:04;;;;;;;34.20;6.47;;;;;;;;;;5065783;28;20036;-77
2023/04/22 03:44:35;;;;;;;17.23;7.18;;;;;;;;;;5067433;28;20040;-77
2023/04/22 03:47:01;;;;;;;23.55;6.80;;;;;;;;;;5061816;28;20110;-77
2023/04/22 03:49:32;;;;;;;29.95;6.78;;;;;;;;;;5069173;28;20485;-77
2023/04/22 03:52:04;;;;;;;18.55;5.68;;;;;;;;;;5068508;28;20066;-76
2023/04/22 03:54:30;;;;;;;21.80;5.93;;;;;;;;;;5068654;28;20037;-76
2023/04/22 03:57:02;;;;;;;26.42;6.32;;;;;;;;;;5071215;28;20044;-77
2023/04/22 03:59:34;;;;;;;21.52;5.85;;;;;;;;;;5072324;28;20085;-77
2023/04/22 04:02:00;;;;;;;32.65;7.18;;;;;;;;;;5068021;28;20037;-77
2023/04/22 04:04:33;;;;;;;28.75;6.85;;;;;;;;;;5070274;28;20116;-77
2023/04/22 04:07:05;;;;;;;36.38;8.10;;;;;;;;;;5060061;28;20044;-77
2023/04/22 04:09:31;;;;;;;23.98;7.18;;;;;;;;;;5076600;28;20044;-77
2023/04/22 04:12:03;;;;;;;29.52;7.55;;;;;;;;;;5068372;28;20036;-77
2023/04/22 04:14:34;;;;;;;35.17;7.57;;;;;;;;;;5072141;28;20036;-76
2023/04/22 04:17:00;;;;;;;41.78;8.18;;;;;;;;;;5071295;28;20097;-77
2023/04/22 04:19:31;;;;;;;40.83;7.72;;;;;;;;;;5072429;28;20028;-77
2023/04/22 04:22:03;;;;;;;34.95;8.40;;;;;;;;;;5058771;28;20543;-76
2023/04/22 04:24:29;;;;;;;35.47;8.02;;;;;;;;;;5061015;28;20496;-77
2023/04/22 04:27:02;;;;;;;45.67;9.73;;;;;;;;;;5078251;28;20071;-77
2023/04/22 04:29:33;;;;;;;43.50;8.30;;;;;;;;;;5058220;28;20043;-76
2023/04/22 04:31:59;;;;;;;53.72;8.25;;;;;;;;;;5042752;28;20127;-76
2023/04/22 04:34:31;;;;;;;93.35;10.23;;;;;;;;;;5057757;28;20064;-77
2023/04/22 04:37:02;;;;;;;65.50;9.95;;;;;;;;;;5059745;28;20068;-77
2023/04/22 04:39:28;;;;;;;89.15;10.93;;;;;;;;;;5056467;28;20102;-77
2023/04/22 04:42:00;;;;;;;61.85;9.55;;;;;;;;;;5056373;28;20028;-77
2023/04/22 04:44:32;;;;;;;54.45;9.27;;;;;;;;;;5064991;28;20045;-77
2023/04/22 04:46:58;;;;;;;108.88;11.20;;;;;;;;;;5055523;28;20036;-77
2023/04/22 04:49:30;;;;;;;93.90;10.23;;;;;;;;;;5086694;28;20468;-77
2023/04/22 04:52:02;;;;;;;61.30;8.95;;;;;;;;;;5063117;28;20052;-76
2023/04/22 04:54:28;;;;;;;55.03;8.68;;;;;;;;;;5083773;28;20052;-76
2023/04/22 04:57:00;;;;;;;69.53;9.48;;;;;;;;;;5065951;28;20032;-77
2023/04/22 04:59:32;;;;;;;62.40;9.70;;;;;;;;;;5068468;28;20504;-77
2023/04/22 05:01:58;;;;;;;48.50;8.25;;;;;;;;;;5067114;28;20037;-77
2023/04/22 05:04:29;;;;;;;51.42;9.27;;;;;;;;;;5055096;28;20048;-78
2023/04/22 05:07:01;;;;;;;36.05;7.53;;;;;;;;;;5054563;28;20095;-77
2023/04/22 05:09:27;;;;;;;30.83;8.52;;;;;;;;;;5061561;28;20421;-77
2023/04/22 05:11:58;;;;;;;54.83;9.18;;;;;;;;;;5060853;28;20021;-77
2023/04/22 05:14:30;;;;;;;35.65;8.73;;;;;;;;;;5057439;28;20037;-77
2023/04/22 05:16:56;;;;;;;30.25;8.27;;;;;;;;;;5064126;28;20127;-77
2023/04/22 05:19:28;;;;;;;43.67;10.45;;;;;;;;;;5070404;28;20123;-77
2023/04/22 05:21:59;;;;;;;101.30;10.93;;;;;;;;;;5054405;28;20029;-77
2023/04/22 05:24:25;;;;;;;100.03;9.75;;;;;;;;;;5053192;28;20045;-77
2023/04/22 05:26:57;;;;;;;38.33;8.15;;;;;;;;;;5064440;28;20070;-77
2023/04/22 05:29:30;;;;;;;53.53;9.30;;;;;;;;;;5054218;28;20037;-76
2023/04/22 05:31:56;;;;;;;197.73;14.90;;;;;;;;;;5053173;28;20139;-77
2023/04/22 05:34:28;;;;;;;118.60;10.63;;;;;;;;;;5057870;28;20698;-79
2023/04/22 05:36:59;;;;;;;79.00;10.05;;;;;;;;;;5062082;28;20098;-79
2023/04/22 05:39:25;;;;;;;151.88;12.70;;;;;;;;;;5059492;28;20044;-80
2023/04/22 05:41:57;;;;;;;63.33;8.88;;;;;;;;;;5062565;28;20070;-79
2023/04/22 05:44:29;;;;;;;89.85;10.27;;;;;;;;;;5069214;28;20040;-78
2023/04/22 05:46:55;;;;;;;120.15;11.48;;;;;;;;;;5067229;28;20044;-77
2023/04/22 05:49:26;;;;;;;76.22;8.93;;;;;;;;;;5055625;28;20040;-78
2023/04/22 05:51:58;;;;;;;110.90;11.23;;;;;;;;;;5059601;28;20040;-77
2023/04/22 05:54:24;;;;;;;131.52;12.55;;;;;;;;;;5059924;28;20071;-79
2023/04/22 05:56:56;;;;;;;131.63;12.63;;;;;;;;;;5062773;28;20029;-81
2023/04/22 05:59:27;;;;;;;198.80;14.57;;;;;;;;;;5057602;28;20136;-77
2023/04/22 06:01:53;;;;;;;58.20;9.18;;;;;;;;;;5064077;28;20115;-78
2023/04/22 06:04:25;;;;;;;81.38;11.27;;;;;;;;;;5061177;28;20429;-78
2023/04/22 06:06:56;;;;;;;68.65;10.18;;;;;;;;;;5045891;28;20041;-78
2023/04/22 06:09:22;;;;;;;86.68;11.13;;;;;;;;;;5056384;28;20047;-79
2023/04/22 06:11:54;;;;;;;76.13;9.27;;;;;;;;;;5060764;28;20029;-78
2023/04/22 06:14:25;;;;;;;96.82;10.95;;;;;;;;;;5058930;28;20040;-79
2023/04/22 06:16:52;;;;;;;66.65;9.38;;;;;;;;;;5068595;28;20040;-79
2023/04/22 06:19:24;;;;;;;57.03;9.40;;;;;;;;;;5070444;28;20468;-79
2023/04/22 06:21:55;;;;;;;109.72;10.13;;;;;;;;;;5053409;28;20029;-79
2023/04/22 06:24:21;;;;;;;112.03;10.98;;;;;;;;;;5058245;28;20041;-79
2023/04/22 06:26:53;;;;;;;56.33;9.32;;;;;;;;;;5068282;28;20036;-78
2023/04/22 06:29:24;;;;;;;31.88;8.48;;;;;;;;;;5067935;28;20071;-79
2023/04/22 06:31:50;;;;;;;42.88;8.45;;;;;;;;;;5062712;28;20055;-78
2023/04/22 06:34:22;;;;;;;26.25;7.78;;;;;;;;;;5058312;28;20028;-78
2023/04/22 06:36:54;;;;;;;20.42;8.35;;;;;;;;;;5041395;28;20034;-78
2023/04/22 06:39:20;;;;;;;29.83;7.68;;;;;;;;;;5053055;28;20037;-78
2023/04/22 06:41:52;;;;;;;52.10;9.05;;;;;;;;;;5066969;28;20476;-79
2023/04/22 06:44:24;;;;;;;27.80;8.25;;;;;;;;;;5047841;28;20080;-78
2023/04/22 06:46:50;;;;;;;80.90;10.50;;;;;;;;;;5055840;28;20029;-78
2023/04/22 06:49:22;;;;;;;47.72;8.68;;;;;;;;;;5056883;28;20040;-78
2023/04/22 06:51:53;;;;;;;49.70;8.77;;;;;;;;;;5052338;28;20431;-78
2023/04/22 06:54:19;;;;;;;71.30;9.43;;;;;;;;;;5052135;28;20091;-77
2023/04/22 06:56:51;;;;;;;79.45;10.27;;;;;;;;;;5056223;28;20025;-78
2023/04/22 06:59:22;;;;;;;26.08;7.15;;;;;;;;;;5054659;28;20051;-77
2023/04/22 07:01:48;;;;;;;64.57;9.57;;;;;;;;;;5064728;28;20036;-78
2023/04/22 07:04:20;;;;;;;33.55;9.20;;;;;;;;;;5063691;28;20465;-78
2023/04/22 07:06:52;;;;;;;81.32;9.18;;;;;;;;;;5062688;28;20069;-78
2023/04/22 07:09:17;;;;;;;121.78;10.23;;;;;;;;;;5045965;28;20048;-78
2023/04/22 07:11:50;;;;;;;36.70;8.43;;;;;;;;;;5060814;28;20028;-78
2023/04/22 07:14:21;;;;;;;150.05;13.48;;;;;;;;;;5055529;28;20072;-78
2023/04/22 07:16:47;;;;;;;100.47;9.90;;;;;;;;;;5069080;28;20090;-78
2023/04/22 07:19:19;;;;;;;214.15;15.90;;;;;;;;;;5057548;28;20106;-78
2023/04/22 07:21:51;;;;;;;193.40;14.65;;;;;;;;;;5084552;28;20033;-79
2023/04/22 07:24:17;;;;;;;346.83;20.73;;;;;;;;;;5047351;28;20040;-78
2023/04/22 07:26:49;;;;;;;73.88;9.48;;;;;;;;;;5059570;28;20124;-78
2023/04/22 07:29:20;;;;;;;170.90;12.40;;;;;;;;;;5045909;28;20037;-78
2023/04/22 07:31:46;;;;;;;373.85;21.02;;;;;;;;;;5040942;28;20047;-78
2023/04/22 07:34:18;;;;;;;11.48;6.85;;;;;;;;;;5054970;28;20388;-78
2023/04/22 07:36:51;;;;;;;45.58;8.18;;;;;;;;;;5059755;28;20083;-78
2023/04/22 07:39:16;;;;;;;10.82;7.28;;;;;;;;;;5069768;28;20040;-78
2023/04/22 07:41:50;;;;;;;11.88;7.05;;;;;;;;;;5071350;28;20040;-78
2023/04/22 07:44:21;;;;;;;10.23;6.90;;;;;;;;;;5046123;28;20393;-78
2023/04/22 07:46:47;;;;;;;10.10;7.05;;;;;;;;;;5057101;28;20106;-79
2023/04/22 07:49:19;;;;;;;10.35;7.03;;;;;;;;;;5064096;28;20528;-78
2023/04/22 07:51:50;;;;;;;10.38;7.15;;;;;;;;;;5054210;28;20440;-78
2023/04/22 07:54:16;;;;;;;10.30;6.60;;;;;;;;;;5057515;28;20040;-79
2023/04/22 07:56:48;;;;;;;9.70;6.88;;;;;;;;;;5055444;28;20443;-79
2023/04/22 07:59:19;;;;;;;15.57;9.48;;;;;;;;;;5058054;28;20083;-77
2023/04/22 08:01:45;;;;;;;12.93;7.70;;;;;;;;;;5057800;28;20101;-78
2023/04/22 08:04:17;;;;;;;14.40;8.90;;;;;;;;;;5069171;28;20473;-77
2023/04/22 08:06:48;;;;;;;9.02;7.20;;;;;;;;;;5060561;28;20041;-78
2023/04/22 08:09:14;;;;;;;8.48;6.40;;;;;;;;;;5047316;28;20076;-77
2023/04/22 08:11:46;;;;;;;10.88;7.80;;;;;;;;;;5041487;28;20041;-77
2023/04/22 08:14:17;;;;;;;10.95;8.18;;;;;;;;;;5044366;28;20044;-77
2023/04/22 08:16:43;;;;;;;12.18;8.10;;;;;;;;;;5039293;28;20095;-76
2023/04/22 08:19:15;;;;;;;11.60;8.60;;;;;;;;;;5040886;28;20025;-77
2023/04/22 08:21:47;;;;;;;12.63;9.40;;;;;;;;;;5044787;28;20056;-77
2023/04/22 08:24:13;;;;;;;15.20;9.70;;;;;;;;;;5039311;28;20041;-77
2023/04/22 08:26:45;;;;;;;14.05;9.50;;;;;;;;;;5038744;28;20041;-76
2023/04/22 08:29:16;;;;;;;13.82;9.57;;;;;;;;;;5035502;28;20092;-76
2023/04/22 08:32:03;;;;;;;12.68;10.00;;;;;;;;;;5035295;28;20057;-75
2023/04/22 08:34:29;;;;;;;13.38;10.27;;;;;;;;;;5034463;28;20544;-75
2023/04/22 08:36:54;;;;;;;14.30;10.65;;;;;;;;;;5035777;28;20108;-76
2023/04/22 08:39:33;;;;;;;12.68;10.40;;;;;;;;;;5039216;28;20033;-76
2023/04/22 08:41:59;;;;;;;16.65;11.50;;;;;;;;;;5040626;28;20124;-76
2023/04/22 08:44:24;;;;;;;17.02;12.50;;;;;;;;;;5033888;28;20065;-77
2023/04/22 08:47:03;;;;;;;16.88;12.95;;;;;;;;;;5034727;28;20033;-76
2023/04/22 08:49:29;;;;;;;16.98;13.13;;;;;;;;;;5036911;28;20386;-77
2023/04/22 08:51:55;;;;;;;17.27;11.80;;;;;;;;;;5036363;28;20030;-75
2023/04/22 08:54:36;;;;;;;15.93;12.45;;;;;;;;;;5043004;28;20119;-75
2023/04/22 08:57:02;;;;;;;16.70;12.32;;;;;;;;;;5034169;28;20478;-78
2023/04/22 08:59:28;;;;;;;16.15;11.85;;;;;;;;;;5033441;28;20042;-75
2023/04/22 09:02:07;;;;;;;17.15;12.05;;;;;;;;;;5028001;28;20059;-78
2023/04/22 09:04:33;;;;;;;18.13;11.93;;;;;;;;;;5033927;28;20041;-77
2023/04/22 09:06:59;;;;;;;16.23;12.10;;;;;;;;;;5041303;28;20029;-75
2023/04/22 09:09:37;;;;;;;16.67;11.68;;;;;;;;;;5033295;28;20119;-76
2023/04/22 09:12:05;;;;;;;19.95;12.80;;;;;;;;;;5036310;28;20056;-78
2023/04/22 09:14:44;;;;;;;20.77;13.25;;;;;;;;;;5033784;28;20385;-76
2023/04/22 09:17:10;;;;;;;20.80;13.63;;;;;;;;;;5033912;28;20106;-75
2023/04/22 09:19:35;;;;;;;18.42;12.82;;;;;;;;;;5041421;28;20486;-75
2023/04/22 09:22:17;;;;;;;20.30;13.77;;;;;;;;;;5036252;28;20116;-76
2023/04/22 09:24:48;;;;;;;21.55;13.93;;;;;;;;;;5038064;28;20119;-76
2023/04/22 09:27:30;;;;;;;21.33;13.90;;;;;;;;;;5035244;28;20386;-75
2023/04/22 09:29:56;;;;;;;20.73;13.30;;;;;;;;;;5056460;28;20041;-76
2023/04/22 09:32:28;;;;;;;17.88;12.85;;;;;;;;;;5040469;28;20045;-75
2023/04/22 09:35:00;;;;;;;16.50;12.18;;;;;;;;;;5043170;28;20041;-75
2023/04/22 09:37:26;;;;;;;17.08;11.77;;;;;;;;;;5036248;28;20587;-75
2023/04/22 09:39:59;;;;;;;15.27;11.20;;;;;;;;;;5045552;28;20049;-75
2023/04/22 09:42:30;;;;;;;17.70;11.10;;;;;;;;;;5046025;28;20428;-75
2023/04/22 09:44:57;;;;;;;16.33;11.23;;;;;;;;;;5045005;28;20056;-74
2023/04/22 09:47:40;;;;;;;14.90;10.23;;;;;;;;;;5037647;28;20037;-74
2023/04/22 09:50:06;;;;;;;18.38;11.18;;;;;;;;;;5042414;28;20044;-75
2023/04/22 09:52:39;;;;;;;15.70;11.07;;;;;;;;;;5042178;28;20091;-75
2023/04/22 09:55:14;;;;;;;17.73;11.32;;;;;;;;;;5045642;28;20041;-75
2023/04/22 09:57:46;;;;;;;15.05;11.05;;;;;;;;;;5046312;28;20037;-74
2023/04/22 10:00:12;;;;;;;16.42;10.27;;;;;;;;;;5044515;28;20037;-77
2023/04/22 10:02:45;;;;;;;15.05;10.13;;;;;;;;;;5046415;28;20085;-77
2023/04/22 10:05:17;;;;;;;15.27;10.38;;;;;;;;;;5032605;28;20486;-77
2023/04/22 10:07:43;;;;;;;16.10;10.32;;;;;;;;;;5026432;28;20076;-77
2023/04/22 10:10:15;;;;;;;15.30;9.27;;;;;;;;;;5040356;28;20036;-77
2023/04/22 10:12:48;;;;;;;16.00;10.00;;;;;;;;;;5044831;28;20052;-77
2023/04/22 10:15:13;;;;;;;17.45;11.63;;;;;;;;;;5040817;28;20094;-77
2023/04/22 10:17:45;;;;;;;15.70;10.70;;;;;;;;;;5048064;28;20033;-77
2023/04/22 10:20:19;;;;;;;15.07;9.95;;;;;;;;;;5043400;28;20064;-77
2023/04/22 10:22:53;;;;;;;16.30;11.15;;;;;;;;;;5036675;28;20124;-76
2023/04/22 10:25:25;;;;;;;;;;;;;;;;;;5031803;28;20043;-75
2023/04/22 10:28:09;;;;;;;16.60;10.63;;;;;;;;;;5041400;28;20345;-74
2023/04/22 10:30:42;;;;;;;15.90;9.95;;;;;;;;;;5022525;28;20069;-77
2023/04/22 10:33:27;;;;;;;15.65;10.15;;;;;;;;;;5036588;28;20059;-77
2023/04/22 10:36:14;;;;;;;17.35;10.80;;;;;;;;;;5035583;28;20040;-76
2023/04/22 10:38:46;;;;;;;16.58;10.07;;;;;;;;;;5040406;28;20040;-77
2023/04/22 10:41:32;;;;;;;15.70;10.32;;;;;;;;;;5043282;28;20095;-77
2023/04/22 10:44:06;;;;;;;18.27;11.50;;;;;;;;;;5043222;28;20033;-76
2023/04/22 10:46:41;;;;;;;14.15;9.27;;;;;;;;;;5046761;28;20044;-77
2023/04/22 10:49:17;;;;;;;16.75;10.90;;;;;;;;;;5037793;28;20413;-77
2023/04/22 10:51:52;;;;;;;18.05;10.80;;;;;;;;;;5038151;28;20397;-77
2023/04/22 10:54:36;;;;;;;18.42;10.93;;;;;;;;;;5042046;28;20088;-77
2023/04/22 10:57:10;;;;;;;;;;;;;;;;;;5035037;28;20033;-73
2023/04/22 10:59:51;;;;;;;16.87;10.60;;;;;;;;;;5038228;28;19917;-76
2023/04/22 11:02:24;;;;;;;16.60;10.70;;;;;;;;;;5033563;28;20040;-77
2023/04/22 11:04:53;;;;;;;15.80;9.23;;;;;;;;;;5036555;28;20065;-77
2023/04/22 11:07:29;;;;;;;13.02;8.88;;;;;;;;;;5036120;28;20043;-77
2023/04/22 11:10:05;;;;;;;11.45;7.30;;;;;;;;;;5046872;28;20037;-76
2023/04/22 11:12:41;;;;;;;16.95;9.65;;;;;;;;;;5036218;28;20045;-76
2023/04/22 11:15:13;;;;;;;17.52;10.60;;;;;;;;;;5046800;28;20163;-76
2023/04/22 11:17:47;;;;;;;17.88;9.63;;;;;;;;;;5038491;28;20041;-76
2023/04/22 11:20:20;;;;;;;15.48;9.77;;;;;;;;;;5043075;28;20435;-76
2023/04/22 11:23:03;;;;;;;17.70;10.63;;;;;;;;;;5033379;28;20145;-77
2023/04/22 11:25:35;;;;;;;16.08;9.65;;;;;;;;;;5031886;28;20033;-77
2023/04/22 11:28:00;;;;;;;14.27;8.77;;;;;;;;;;5035588;28;20503;-76
2023/04/22 11:30:33;;;;;;;13.57;8.32;;;;;;;;;;5037661;28;20025;-76
2023/04/22 11:33:06;;;;;;;16.10;10.45;;;;;;;;;;5037425;28;20045;-77
2023/04/22 11:35:32;;;;;;;13.82;9.07;;;;;;;;;;5053358;28;20044;-76
2023/04/22 11:38:09;;;;;;;15.65;9.63;;;;;;;;;;5033782;28;20033;-76
2023/04/22 11:40:44;;;;;;;17.48;9.90;;;;;;;;;;5036799;28;20041;-76
2023/04/22 11:43:09;;;;;;;15.40;10.23;;;;;;;;;;5052622;28;20438;-76
2023/04/22 11:45:42;;;;;;;18.88;12.55;;;;;;;;;;5043541;28;20068;-76
2023/04/22 11:48:17;;;;;;;19.92;10.70;;;;;;;;;;5035873;28;20043;-76
2023/04/22 11:50:50;;;;;;;14.05;9.15;;;;;;;;;;5045692;28;20435;-76
2023/04/22 11:53:22;;;;;;;16.13;10.50;;;;;;;;;;5048511;28;20120;-77
2023/04/22 11:55:56;;;;;;;16.45;11.35;;;;;;;;;;5032120;28;20043;-76
2023/04/22 11:58:30;;;;;;;17.02;10.68;;;;;;;;;;5039582;28;20052;-77
2023/04/22 12:01:03;;;;;;;17.30;10.35;;;;;;;;;;5046756;28;20034;-76
2023/04/22 12:03:36;;;;;;;16.48;10.43;;;;;;;;;;5039472;28;20040;-76
2023/04/22 12:06:03;;;;;;;17.95;11.13;;;;;;;;;;5050029;28;20446;-77
2023/04/22 12:08:43;;;;;;;13.90;9.30;;;;;;;;;;5035395;28;20025;-77
2023/04/22 12:11:15;;;;;;;14.05;8.77;;;;;;;;;;5028531;28;20045;-76
2023/04/22 12:13:49;;;;;;;11.95;7.80;;;;;;;;;;5042668;28;20090;-76
2023/04/22 12:16:22;;;;;;;14.23;8.73;;;;;;;;;;5043033;28;20045;-77
2023/04/22 12:18:58;;;;;;;13.30;8.48;;;;;;;;;;5039062;28;20112;-76
2023/04/22 12:21:31;;;;;;;12.50;8.63;;;;;;;;;;5039961;28;20044;-76
2023/04/22 12:24:14;;;;;;;12.20;8.33;;;;;;;;;;5039665;28;20489;-77
2023/04/22 12:26:46;;;;;;;14.70;9.23;;;;;;;;;;5023913;28;20500;-76
2023/04/22 12:29:11;;;;;;;13.35;8.85;;;;;;;;;;5034649;28;20041;-76
2023/04/22 12:31:43;;;;;;;16.13;9.90;;;;;;;;;;5035610;28;20428;-76
2023/04/22 12:34:16;;;;;;;11.27;7.50;;;;;;;;;;5034074;28;20103;-76
2023/04/22 12:36:41;;;;;;;13.43;9.00;;;;;;;;;;5046406;28;20110;-76
2023/04/22 12:39:14;;;;;;;13.95;9.07;;;;;;;;;;5047882;28;20025;-76
2023/04/22 12:41:49;;;;;;;15.15;9.00;;;;;;;;;;5038580;28;20079;-76
2023/04/22 12:44:21;;;;;;;11.90;8.20;;;;;;;;;;5037857;28;20460;-76
2023/04/22 12:46:54;;;;;;;13.80;9.27;;;;;;;;;;5043790;28;20049;-75
2023/04/22 12:49:19;;;;;;;14.02;9.68;;;;;;;;;;5040485;28;20420;-76
2023/04/22 12:51:51;;;;;;;14.43;8.77;;;;;;;;;;5037846;28;20029;-75
2023/04/22 12:54:23;;;;;;;14.45;9.80;;;;;;;;;;5035943;28;20537;-75
2023/04/22 12:56:48;;;;;;;14.82;8.52;;;;;;;;;;5062387;28;20087;-76
2023/04/22 12:59:20;;;;;;;15.85;8.05;;;;;;;;;;5038145;28;20033;-76
2023/04/22 13:01:53;;;;;;;14.82;8.20;;;;;;;;;;5058330;28;20060;-76
2023/04/22 13:04:19;;;;;;;13.52;7.97;;;;;;;;;;5043711;28;20041;-75
2023/04/22 13:06:55;;;;;;;13.18;7.93;;;;;;;;;;5048217;28;20443;-75
2023/04/22 13:09:27;;;;;;;14.57;8.93;;;;;;;;;;5045908;28;20481;-75
2023/04/22 13:11:59;;;;;;;13.98;9.02;;;;;;;;;;5050127;28;20100;-75
2023/04/22 13:14:24;;;;;;;11.40;7.65;;;;;;;;;;5040072;28;20060;-76
2023/04/22 13:16:56;;;;;;;14.43;7.75;;;;;;;;;;5039804;28;20457;-75
2023/04/22 13:19:28;;;;;;;11.55;7.45;;;;;;;;;;5061769;28;20488;-76
2023/04/22 13:21:53;;;;;;;13.27;8.02;;;;;;;;;;5045889;28;20511;-75
2023/04/22 13:24:26;;;;;;;13.90;8.25;;;;;;;;;;5040153;28;20053;-76
2023/04/22 13:26:57;;;;;;;12.40;8.20;;;;;;;;;;5033508;28;20107;-75
2023/04/22 13:29:24;;;;;;;12.50;8.48;;;;;;;;;;5041181;28;20130;-76
2023/04/22 13:31:56;;;;;;;11.00;7.80;;;;;;;;;;5036209;28;20112;-76
2023/04/22 13:34:27;;;;;;;14.88;9.07;;;;;;;;;;5040707;28;20389;-76
2023/04/22 13:36:53;;;;;;;12.30;8.32;;;;;;;;;;5035531;28;20557;-76
2023/04/22 13:39:25;;;;;;;14.75;9.40;;;;;;;;;;5042126;28;20112;-76
2023/04/22 13:41:57;;;;;;;10.98;7.82;;;;;;;;;;5053667;28;20113;-76
2023/04/22 13:44:23;;;;;;;14.47;8.27;;;;;;;;;;5036148;28;20064;-76
2023/04/22 13:46:55;;;;;;;13.70;8.07;;;;;;;;;;5035071;28;20389;-76
2023/04/22 13:49:26;;;;;;;13.13;8.30;;;;;;;;;;5038996;28;20087;-75
2023/04/22 13:51:52;;;;;;;12.43;7.75;;;;;;;;;;5036315;28;20037;-75
2023/04/22 13:54:26;;;;;;;14.18;8.35;;;;;;;;;;5030197;28;20022;-76
2023/04/22 13:56:58;;;;;;;12.93;8.00;;;;;;;;;;5035860;28;20060;-75
2023/04/22 13:59:24;;;;;;;11.98;7.55;;;;;;;;;;5037445;28;20064;-76
2023/04/22 14:01:56;;;;;;;13.23;8.68;;;;;;;;;;5032600;28;20511;-76
2023/04/22 14:04:27;;;;;;;11.70;8.07;;;;;;;;;;5031712;28;20048;-75
2023/04/22 14:06:53;;;;;;;12.27;8.05;;;;;;;;;;5028862;28;20034;-75
2023/04/22 14:09:25;;;;;;;11.48;7.72;;;;;;;;;;5032362;28;20038;-76
2023/04/22 14:11:56;;;;;;;12.05;8.15;;;;;;;;;;5042300;28;20065;-75
2023/04/22 14:14:22;;;;;;;13.23;8.80;;;;;;;;;;5039420;28;20037;-75
2023/04/22 14:16:54;;;;;;;13.13;7.57;;;;;;;;;;5048961;28;20106;-75
2023/04/22 14:19:28;;;;;;;13.43;8.65;;;;;;;;;;5053008;28;20512;-75
2023/04/22 14:22:01;;;;;;;12.63;7.55;;;;;;;;;;5033403;28;20381;-74
2023/04/22 14:24:33;;;;;;;12.50;7.82;;;;;;;;;;5034647;28;20519;-75
2023/04/22 14:27:00;;;;;;;11.03;7.57;;;;;;;;;;5013483;28;20041;-75
2023/04/22 14:29:32;;;;;;;13.85;7.85;;;;;;;;;;5037512;28;20025;-75
2023/04/22 14:32:05;;;;;;;12.23;8.60;;;;;;;;;;5049529;28;20555;-75
2023/04/22 14:34:30;;;;;;;13.43;7.55;;;;;;;;;;5029028;28;20046;-75
2023/04/22 14:37:02;;;;;;;13.50;7.80;;;;;;;;;;5023918;28;20048;-75
2023/04/22 14:39:33;;;;;;;16.92;8.75;;;;;;;;;;5040990;28;20088;-76
2023/04/22 14:41:59;;;;;;;13.45;8.43;;;;;;;;;;5040880;28;20075;-74
2023/04/22 14:44:31;;;;;;;15.05;8.52;;;;;;;;;;5054218;28;20061;-76
2023/04/22 14:47:02;;;;;;;11.93;8.20;;;;;;;;;;5039431;28;20076;-75
2023/04/22 14:49:28;;;;;;;12.32;8.82;;;;;;;;;;5038694;28;20377;-75